createdAt,value
2022-09-05T07:36:38.531Z,99.90
2022-09-05T07:40:34.976Z,99.90
2022-09-05T07:46:45.185Z,99.90
2022-09-05T07:49:16.398Z,99.90
2022-09-05T07:56:54.262Z,99.90
2022-09-05T07:57:08.505Z,97.30
2022-09-05T07:57:50.721Z,93.20
2022-09-05T08:00:27.127Z,94.10
2022-09-05T08:03:01.234Z,93.30
2022-09-05T08:05:43.947Z,90.20
2022-09-05T08:08:16.257Z,90.30
2022-09-05T08:11:25.629Z,88.10
2022-09-05T08:13:47.011Z,77.30
2022-09-05T08:16:27.366Z,75.10
2022-09-05T08:19:27.657Z,75.10
2022-09-05T08:21:58.118Z,71.70
2022-09-05T08:24:54.690Z,71.90
2022-09-05T08:27:26.438Z,73.80
2022-09-05T08:30:26.036Z,71.20
2022-09-05T08:33:11.672Z,70.00
2022-09-05T08:35:53.292Z,68.70
2022-09-05T08:38:45.648Z,68.20
2022-09-05T08:41:49.249Z,68.50
2022-09-05T08:46:40.508Z,66.60
2022-09-05T08:48:16.120Z,68.90
2022-09-05T08:50:54.081Z,67.90
2022-09-05T08:53:45.413Z,67.20
2022-09-05T08:56:20.442Z,67.30
2022-09-05T08:58:54.001Z,63.50
2022-09-05T09:02:45.307Z,61.00
2022-09-05T09:05:14.430Z,60.70
2022-09-05T09:08:03.074Z,59.30
2022-09-05T09:10:50.201Z,59.00
2022-09-05T09:13:36.068Z,56.30
2022-09-05T09:16:12.186Z,55.40
2022-09-05T09:19:05.218Z,55.40
2022-09-05T09:21:56.767Z,53.80
2022-09-05T09:25:15.366Z,54.80
2022-09-05T09:28:46.858Z,50.60
2022-09-05T09:31:23.251Z,52.50
2022-09-05T09:34:14.277Z,51.60
2022-09-05T09:36:49.978Z,51.90
2022-09-05T09:39:38.835Z,52.20
2022-09-05T09:42:33.478Z,52.40
2022-09-05T09:45:34.750Z,52.40
2022-09-05T09:48:10.829Z,50.90
2022-09-05T09:50:53.514Z,49.10
2022-09-05T09:53:42.516Z,49.10
2022-09-05T09:56:21.281Z,49.70
2022-09-05T09:59:09.378Z,49.70
2022-09-05T10:01:54.574Z,47.90
2022-09-05T10:10:39.121Z,47.70
2022-09-05T10:10:46.046Z,47.60
2022-09-05T10:14:22.191Z,47.50
2022-09-05T10:17:27.801Z,47.50
2022-09-05T10:20:29.844Z,47.70
2022-09-05T10:23:26.973Z,46.00
2022-09-05T10:26:12.661Z,43.60
2022-09-05T10:29:26.710Z,45.20
2022-09-05T10:35:09.966Z,46.40
2022-09-05T10:35:17.783Z,46.30
2022-09-05T10:38:10.608Z,47.30
2022-09-05T10:41:21.568Z,45.50
2022-09-05T10:43:33.315Z,45.10
2022-09-05T10:46:52.534Z,46.60
2022-09-05T10:49:30.555Z,47.70
2022-09-05T10:52:19.245Z,47.90
2022-09-05T10:54:49.546Z,48.00
2022-09-05T10:57:32.582Z,47.60
2022-09-05T11:02:20.635Z,45.70
2022-09-05T11:02:58.240Z,45.00
2022-09-05T11:05:38.105Z,45.10
2022-09-05T11:08:16.090Z,44.60
2022-09-05T11:11:28.260Z,44.00
2022-09-05T11:14:27.043Z,45.40
2022-09-05T11:17:03.371Z,45.20
2022-09-05T11:19:45.490Z,44.50
2022-09-05T11:22:22.639Z,44.00
2022-09-05T11:25:00.960Z,44.40
2022-09-05T11:27:41.463Z,43.90
2022-09-05T11:30:28.456Z,43.10
2022-09-05T11:39:47.648Z,42.90
2022-09-05T11:39:56.262Z,44.20
2022-09-05T11:40:31.209Z,44.40
2022-09-05T11:42:56.110Z,44.00
2022-09-05T11:45:34.907Z,42.60
2022-09-05T11:48:20.013Z,43.40
2022-09-05T11:51:05.011Z,43.20
2022-09-05T11:53:57.332Z,42.40
2022-09-05T11:56:45.643Z,40.90
2022-09-05T11:59:33.445Z,40.10
2022-09-05T12:02:24.395Z,40.70
2022-09-05T12:05:49.921Z,41.80
2022-09-05T12:08:21.526Z,41.50
2022-09-05T12:11:03.647Z,41.70
2022-09-05T12:13:40.446Z,41.20
2022-09-05T12:16:36.496Z,41.50
2022-09-05T12:19:31.193Z,43.10
2022-09-05T12:22:23.670Z,43.50
2022-09-05T12:27:35.785Z,42.80
2022-09-05T12:29:26.735Z,41.20
2022-09-05T12:32:49.469Z,40.10
2022-09-05T12:36:04.559Z,40.50
2022-09-05T12:40:53.330Z,39.20
2022-09-05T12:41:33.093Z,39.40
2022-09-05T12:44:31.195Z,37.80
2022-09-05T12:45:50.549Z,37.80
2022-09-05T12:48:38.391Z,37.90
2022-09-05T12:51:46.274Z,38.10
2022-09-05T12:54:33.401Z,39.20
2022-09-05T13:02:02.852Z,38.50
2022-09-05T13:03:14.238Z,38.40
2022-09-05T13:03:28.718Z,38.50
2022-09-05T13:06:24.969Z,37.50
2022-09-05T13:09:08.273Z,36.20
2022-09-05T13:14:57.190Z,36.90
2022-09-05T13:15:06.017Z,36.30
2022-09-05T13:17:59.317Z,36.50
2022-09-05T13:20:36.745Z,36.30
2022-09-05T13:23:21.801Z,36.70
2022-09-05T13:26:08.052Z,36.50
2022-09-05T13:29:10.631Z,36.60
2022-09-05T13:37:58.717Z,36.10
2022-09-05T13:38:12.951Z,35.60
2022-09-05T13:38:15.189Z,35.10
2022-09-05T13:40:40.158Z,34.20
2022-09-05T13:43:29.695Z,34.40
2022-09-05T13:46:11.136Z,34.40
2022-09-05T13:51:54.656Z,35.10
2022-09-05T13:54:40.082Z,35.80
2022-09-05T13:57:18.609Z,36.40
2022-09-05T14:00:28.270Z,36.10
2022-09-05T14:03:39.294Z,38.50
2022-09-05T14:06:47.344Z,38.70
2022-09-05T14:09:39.906Z,36.80
2022-09-05T14:12:38.108Z,37.30
2022-09-05T14:15:17.713Z,36.70
2022-09-05T14:18:21.401Z,35.40
2022-09-05T14:21:16.250Z,34.70
2022-09-05T14:24:06.505Z,35.30
2022-09-05T14:26:45.468Z,35.10
2022-09-05T14:29:41.790Z,35.60
2022-09-05T14:37:36.686Z,35.60
2022-09-05T14:37:43.766Z,36.90
2022-09-05T14:38:52.242Z,37.60
2022-09-05T14:41:38.202Z,38.90
2022-09-05T14:44:24.779Z,38.80
2022-09-05T14:47:10.012Z,38.90
2022-09-05T14:50:17.530Z,39.70
2022-09-05T15:00:46.119Z,42.20
2022-09-05T15:02:54.799Z,44.10
2022-09-05T15:03:00.903Z,44.60
2022-09-05T15:05:59.651Z,45.50
2022-09-05T15:16:08.985Z,46.80
2022-09-05T15:18:56.967Z,45.40
2022-09-05T15:24:24.407Z,41.20
2022-09-05T15:27:04.492Z,41.10
2022-09-05T15:30:07.708Z,42.20
2022-09-05T15:32:44.561Z,44.40
2022-09-05T15:35:58.642Z,45.00
2022-09-05T15:38:55.147Z,43.20
2022-09-05T15:41:38.053Z,42.60
2022-09-05T15:44:24.811Z,43.00
2022-09-05T15:47:11.314Z,43.40
2022-09-05T15:49:53.096Z,42.50
2022-09-05T15:52:19.860Z,41.60
2022-09-05T15:54:49.506Z,40.10
2022-09-05T15:57:21.452Z,40.10
2022-09-05T15:59:53.294Z,40.50
2022-09-05T16:02:24.215Z,40.80
2022-09-05T16:10:33.512Z,42.00
2022-09-05T16:10:48.889Z,43.80
2022-09-05T16:14:46.517Z,44.70
2022-09-05T16:23:13.888Z,45.40
2022-09-05T16:23:33.474Z,44.30
2022-09-05T16:23:47.091Z,45.50
2022-09-05T16:26:25.364Z,46.90
2022-09-05T16:29:32.995Z,47.90
